createdAt,value
2018-11-29T00:00:33.557Z,17.23
2018-11-29T00:03:01.995Z,12.77
2018-11-29T00:05:30.328Z,14.53
2018-11-29T00:07:58.673Z,14.00
2018-11-29T00:10:27.097Z,15.10
2018-11-29T00:12:56.441Z,15.37
2018-11-29T00:15:24.808Z,14.13
2018-11-29T00:17:54.148Z,14.53
2018-11-29T00:20:22.541Z,14.40
2018-11-29T00:22:51.447Z,14.97
2018-11-29T00:25:20.127Z,15.47
2018-11-29T00:27:48.734Z,14.67
2018-11-29T00:30:20.996Z,14.73
2018-11-29T00:32:49.811Z,15.27
2018-11-29T00:35:18.450Z,14.53
2018-11-29T00:37:46.987Z,14.73
2018-11-29T00:40:17.190Z,15.30
2018-11-29T00:42:45.636Z,14.07
2018-11-29T00:45:15.724Z,14.70
2018-11-29T00:47:44.794Z,15.77
2018-11-29T00:50:14.620Z,15.50
2018-11-29T00:52:43.911Z,14.60
2018-11-29T00:55:14.391Z,15.03
2018-11-29T00:57:42.765Z,15.10
2018-11-29T01:00:14.123Z,14.53
2018-11-29T01:02:42.584Z,15.70
2018-11-29T01:05:10.990Z,16.33
2018-11-29T01:07:39.549Z,14.87
2018-11-29T01:10:11.873Z,16.00
2018-11-29T01:12:41.383Z,14.43
2018-11-29T01:15:11.788Z,15.80
2018-11-29T01:17:40.346Z,14.47
2018-11-29T01:20:10.070Z,14.97
2018-11-29T01:22:38.443Z,15.33
2018-11-29T01:25:08.195Z,15.17
2018-11-29T01:27:36.539Z,13.67
2018-11-29T01:30:06.959Z,14.63
2018-11-29T01:32:35.317Z,14.87
2018-11-29T01:35:03.725Z,16.63
2018-11-29T01:37:32.289Z,13.27
2018-11-29T01:40:00.664Z,14.73
2018-11-29T01:42:29.037Z,17.40
2018-11-29T01:44:57.427Z,14.87
2018-11-29T01:47:25.768Z,15.50
2018-11-29T01:49:54.213Z,16.00
2018-11-29T01:52:22.546Z,15.73
2018-11-29T01:54:51.720Z,15.40
2018-11-29T01:57:20.054Z,18.53
2018-11-29T01:59:48.418Z,15.83
2018-11-29T02:02:16.852Z,15.93
2018-11-29T02:04:45.211Z,16.17
2018-11-29T02:07:13.783Z,14.23
2018-11-29T02:09:42.580Z,17.23
2018-11-29T02:12:10.962Z,15.47
2018-11-29T02:14:39.379Z,21.70
2018-11-29T02:17:07.788Z,17.33
2018-11-29T10:33:50.074Z,9.90
2018-11-29T10:36:18.386Z,12.73
2018-11-29T10:38:46.701Z,10.80
2018-11-29T10:41:15.105Z,12.13
2018-11-29T10:43:43.505Z,12.60
2018-11-29T10:46:11.875Z,11.83
2018-11-29T10:48:40.508Z,12.20
2018-11-29T10:51:08.892Z,10.83
2018-11-29T10:53:38.174Z,11.47
2018-11-29T10:56:05.676Z,11.93
2018-11-29T10:58:34.008Z,10.77
2018-11-29T11:01:07.771Z,11.83
2018-11-29T11:03:36.137Z,11.47
2018-11-29T11:06:04.512Z,10.27
2018-11-29T11:08:32.862Z,11.93
2018-11-29T11:11:06.549Z,11.40
2018-11-29T11:13:35.653Z,12.67
2018-11-29T11:16:03.989Z,11.07
2018-11-29T11:18:32.415Z,13.23
2018-11-29T11:21:00.732Z,11.83
2018-11-29T11:23:29.088Z,11.57
2018-11-29T11:25:57.480Z,12.63
2018-11-29T11:28:25.857Z,10.87
2018-11-29T11:30:54.293Z,12.43
2018-11-29T11:33:22.672Z,11.43
2018-11-29T11:35:51.039Z,11.90
2018-11-29T11:38:19.413Z,11.33
2018-11-29T11:40:47.897Z,11.07
2018-11-29T11:43:16.637Z,11.10
2018-11-29T11:45:47.647Z,11.10
2018-11-29T11:48:16.245Z,11.53
2018-11-29T11:50:47.606Z,10.60
2018-11-29T11:53:16.300Z,11.37
2018-11-29T11:55:44.969Z,10.10
2018-11-29T11:58:13.350Z,11.73
2018-11-29T12:00:41.756Z,9.83
2018-11-29T12:03:13.881Z,10.80
2018-11-29T12:05:42.255Z,10.93
2018-11-29T12:08:10.697Z,10.20
2018-11-29T12:10:40.141Z,10.53
2018-11-29T12:13:08.635Z,12.27
2018-11-29T12:15:37.747Z,11.40
2018-11-29T12:18:08.184Z,10.57
2018-11-29T12:20:36.564Z,10.97
2018-11-29T12:23:05.272Z,10.47
2018-11-29T12:25:33.680Z,10.40
2018-11-29T12:28:02.287Z,10.63
2018-11-29T12:30:32.096Z,12.10
2018-11-29T12:33:01.714Z,8.93
2018-11-29T12:35:30.223Z,9.93
2018-11-29T12:37:58.572Z,9.77
2018-11-29T12:40:27.318Z,11.30
2018-11-29T12:42:55.713Z,10.07
2018-11-29T12:45:25.365Z,9.47
2018-11-29T12:47:53.956Z,10.37
2018-11-29T12:50:23.729Z,9.67
2018-11-29T12:52:52.110Z,8.87
2018-11-29T12:55:23.653Z,9.37
2018-11-29T12:58:04.376Z,9.93
2018-11-29T13:00:22.056Z,8.53
2018-11-29T13:02:52.541Z,8.60
2018-11-29T13:05:21.013Z,9.70
2018-11-29T13:07:49.432Z,8.90
2018-11-29T13:10:18.809Z,9.20
2018-11-29T13:12:47.487Z,9.43
2018-11-29T13:15:24.141Z,9.43
2018-11-29T13:17:52.632Z,9.03
2018-11-29T13:20:21.056Z,8.63
2018-11-29T13:22:50.852Z,9.07
2018-11-29T13:25:21.269Z,9.87
2018-11-29T13:27:49.867Z,9.87
2018-11-29T13:30:20.983Z,9.23
2018-11-29T13:32:51.275Z,11.60
2018-11-29T13:35:26.846Z,8.40
2018-11-29T13:37:56.556Z,8.37
2018-11-29T13:40:25.045Z,9.33
2018-11-29T13:42:53.455Z,9.93
2018-11-29T13:45:21.935Z,8.97
2018-11-29T13:47:50.404Z,9.30
2018-11-29T13:50:18.887Z,8.47
2018-11-29T13:52:47.309Z,10.47
2018-11-29T13:55:16.357Z,9.50
2018-11-29T13:57:48.013Z,8.33
2018-11-29T14:00:17.422Z,8.93
2018-11-29T14:02:47.313Z,7.10
2018-11-29T14:05:15.603Z,9.10
2018-11-29T14:07:43.995Z,8.73
2018-11-29T14:10:13.724Z,8.67
2018-11-29T14:12:42.109Z,8.17
2018-11-29T14:15:13.772Z,8.57
2018-11-29T14:17:42.351Z,8.10
2018-11-29T14:20:11.831Z,7.90
2018-11-29T14:22:40.252Z,8.83
2018-11-29T14:25:10.896Z,9.47
2018-11-29T14:27:39.629Z,7.83
2018-11-29T14:30:15.321Z,7.67
2018-11-29T14:32:43.711Z,8.03
2018-11-29T14:35:12.168Z,8.07
2018-11-29T14:37:40.754Z,8.77
2018-11-29T14:40:11.491Z,7.80
2018-11-29T14:42:39.911Z,9.80
2018-11-29T14:45:09.986Z,7.90
2018-11-29T14:47:38.396Z,8.87
2018-11-29T14:50:11.081Z,9.47
2018-11-29T14:52:39.454Z,8.43
2018-11-29T14:55:09.485Z,7.37
2018-11-29T14:57:37.876Z,7.77
2018-11-29T15:00:08.793Z,8.27
2018-11-29T15:02:37.212Z,8.50
2018-11-29T15:05:11.958Z,8.27
2018-11-29T15:07:40.637Z,8.40
2018-11-29T15:10:09.956Z,7.27
2018-11-29T15:12:38.503Z,8.70
2018-11-29T15:15:09.081Z,9.00
2018-11-29T15:17:38.487Z,8.20
2018-11-29T15:20:12.755Z,8.67
2018-11-29T15:22:41.171Z,8.40
2018-11-29T15:25:09.521Z,7.53
2018-11-29T15:27:37.876Z,7.97
2018-11-29T15:30:14.473Z,7.13
2018-11-29T15:32:42.937Z,7.57
2018-11-29T15:35:11.326Z,7.83
2018-11-29T15:37:39.756Z,7.60
2018-11-29T15:40:13.329Z,8.07
2018-11-29T15:42:41.765Z,7.47
2018-11-29T15:45:13.457Z,8.23
2018-11-29T15:47:41.848Z,7.27
2018-11-29T15:50:11.684Z,8.03
2018-11-29T15:52:40.125Z,7.57
2018-11-29T15:55:13.992Z,8.03
2018-11-29T15:57:43.880Z,6.90
2018-11-29T16:00:18.335Z,8.07
2018-11-29T16:02:47.515Z,8.57
2018-11-29T16:05:15.832Z,7.33
2018-11-29T16:07:44.225Z,7.23
2018-11-29T16:10:14.521Z,7.40
2018-11-29T16:12:42.916Z,7.07
2018-11-29T16:15:13.585Z,7.50
2018-11-29T16:17:42.251Z,6.87
2018-11-29T16:20:12.958Z,7.90
2018-11-29T16:22:41.341Z,7.73
2018-11-29T16:25:10.899Z,7.77
2018-11-29T16:27:39.319Z,6.37
2018-11-29T16:30:16.122Z,6.63
2018-11-29T16:32:44.477Z,7.27
2018-11-29T16:35:12.856Z,7.53
2018-11-29T16:37:41.226Z,6.63
2018-11-29T16:40:09.692Z,7.57
2018-11-29T16:42:38.041Z,7.50
2018-11-29T16:45:12.540Z,7.23
2018-11-29T16:47:41.274Z,7.10
2018-11-29T16:50:14.891Z,6.10
2018-11-29T16:52:43.276Z,8.13
2018-11-29T16:55:12.320Z,7.23
2018-11-29T16:57:42.455Z,6.27
2018-11-29T17:00:13.275Z,7.87
2018-11-29T17:02:41.703Z,6.37
2018-11-29T17:05:11.888Z,6.73
2018-11-29T17:07:40.292Z,6.87
2018-11-29T17:10:11.228Z,6.20
2018-11-29T17:12:39.665Z,6.77
2018-11-29T17:15:13.906Z,5.63
2018-11-29T17:17:42.674Z,5.40
2018-11-29T17:20:14.863Z,5.80
2018-11-29T17:22:43.417Z,5.93
2018-11-29T17:25:12.558Z,6.17
2018-11-29T17:27:40.996Z,5.43
2018-11-29T17:30:19.516Z,5.83
2018-11-29T17:32:48.452Z,5.43
2018-11-29T17:35:16.804Z,6.63
2018-11-29T17:37:45.129Z,6.33
2018-11-29T17:40:14.648Z,5.20
2018-11-29T17:42:43.054Z,5.90
2018-11-29T17:45:14.745Z,5.93
2018-11-29T17:47:43.847Z,5.10
2018-11-29T17:50:14.854Z,6.13
2018-11-29T17:52:43.163Z,5.13
2018-11-29T17:55:11.527Z,5.07
2018-11-29T17:57:40.012Z,5.00
2018-11-29T18:00:12.930Z,4.93
2018-11-29T18:02:41.412Z,4.93
2018-11-29T18:05:09.793Z,4.90
2018-11-29T18:07:38.161Z,5.57
2018-11-29T18:10:11.913Z,4.80
2018-11-29T18:12:40.255Z,5.77
2018-11-29T18:15:14.699Z,5.03
2018-11-29T18:17:43.087Z,5.03
2018-11-29T18:20:12.160Z,5.30
